createdAt,value
2023-04-07T00:00:49.082Z,0.50
2023-04-07T00:03:22.071Z,0.48
2023-04-07T00:05:51.114Z,0.47
2023-04-07T00:08:19.908Z,0.46
2023-04-07T00:10:48.668Z,0.45
2023-04-07T00:13:17.470Z,0.43
2023-04-07T00:15:46.263Z,0.48
2023-04-07T00:18:15.031Z,0.48
2023-04-07T00:20:43.898Z,0.46
2023-04-07T00:23:12.635Z,0.47
2023-04-07T00:25:41.428Z,0.51
2023-04-07T00:28:10.222Z,0.54
2023-04-07T00:30:39.024Z,0.55
2023-04-07T00:33:09.743Z,0.55
2023-04-07T00:35:38.841Z,0.53
2023-04-07T00:38:07.811Z,0.53
2023-04-07T00:40:36.743Z,0.49
2023-04-07T00:43:05.884Z,0.46
2023-04-07T00:45:35.174Z,0.45
2023-04-07T00:48:05.930Z,0.36
2023-04-07T00:50:34.903Z,0.34
2023-04-07T00:53:16.476Z,0.33
2023-04-07T00:55:45.522Z,0.34
2023-04-07T00:58:14.655Z,0.35
2023-04-07T01:01:07.201Z,0.35
2023-04-07T01:04:33.561Z,0.39
2023-04-07T01:07:19.614Z,0.43
2023-04-07T01:10:10.765Z,0.47
2023-04-07T01:13:12.576Z,0.50
2023-04-07T01:15:43.246Z,0.50
2023-04-07T01:18:23.109Z,0.50
2023-04-07T01:20:57.086Z,0.53
2023-04-07T01:24:01.343Z,0.56
2023-04-07T01:26:34.173Z,0.60
2023-04-07T01:29:37.629Z,0.65
2023-04-07T01:32:08.976Z,0.63
2023-04-07T01:34:39.278Z,0.63
2023-04-07T01:37:09.527Z,0.63
2023-04-07T01:39:39.699Z,0.61
2023-04-07T01:42:09.842Z,0.59
2023-04-07T01:44:39.382Z,0.59
2023-04-07T01:47:08.947Z,0.59
2023-04-07T01:49:39.423Z,0.57
2023-04-07T01:52:08.905Z,0.55
2023-04-07T01:54:38.226Z,0.51
2023-04-07T02:00:47.265Z,0.59
2023-04-07T02:03:43.656Z,0.56
2023-04-07T02:06:19.132Z,0.52
2023-04-07T02:09:05.648Z,0.52
2023-04-07T02:11:37.854Z,0.53
2023-04-07T02:14:08.798Z,0.55
2023-04-07T02:16:49.030Z,0.59
2023-04-07T02:19:18.414Z,0.63
2023-04-07T02:21:49.083Z,0.65
2023-04-07T02:24:24.583Z,0.65
2023-04-07T02:26:53.333Z,0.69
2023-04-07T02:29:22.099Z,0.62
2023-04-07T02:31:50.919Z,0.56
2023-04-07T02:34:19.844Z,0.50
2023-04-07T02:36:48.792Z,0.43
2023-04-07T02:39:17.588Z,0.41
2023-04-07T02:41:46.438Z,0.39
2023-04-07T02:44:24.549Z,0.46
2023-04-07T02:46:53.404Z,0.49
2023-04-07T02:49:22.258Z,0.46
2023-04-07T02:51:51.288Z,0.43
2023-04-07T02:54:19.891Z,0.43
2023-04-07T02:56:48.578Z,0.47
2023-04-07T02:59:17.282Z,0.54
2023-04-07T03:01:46.207Z,0.52
2023-04-07T03:04:15.192Z,0.48
2023-04-07T03:06:44.742Z,0.50
2023-04-07T03:09:16.315Z,0.48
2023-04-07T03:11:45.120Z,0.45
2023-04-07T03:14:13.996Z,0.50
2023-04-07T03:27:58.415Z,0.98
2023-04-07T03:30:27.297Z,1.06
2023-04-07T03:32:54.832Z,1.02
2023-04-07T03:35:22.829Z,0.94
2023-04-07T03:37:50.275Z,0.97
2023-04-07T03:40:21.076Z,0.92
2023-04-07T03:42:48.639Z,1.00
2023-04-07T03:45:19.318Z,0.99
2023-04-07T03:47:48.895Z,0.95
2023-04-07T03:50:16.775Z,0.94
2023-04-07T03:52:53.208Z,0.91
2023-04-07T03:55:25.543Z,0.88
2023-04-07T03:57:56.416Z,0.93
2023-04-07T04:00:24.947Z,0.95
2023-04-07T04:03:02.901Z,0.84
2023-04-07T04:05:36.754Z,0.79
2023-04-07T04:08:08.153Z,0.76
2023-04-07T04:35:38.222Z,1.07
2023-04-07T04:38:12.303Z,1.07
2023-04-07T04:40:43.351Z,1.00
2023-04-07T04:43:11.684Z,1.05
2023-04-07T04:45:40.611Z,0.99
2023-04-07T04:48:10.606Z,0.94
2023-04-07T04:50:38.002Z,0.94
2023-04-07T04:53:09.961Z,0.97
2023-04-07T04:55:46.691Z,1.00
2023-04-07T04:58:16.043Z,1.00
2023-04-07T05:00:47.271Z,1.07
2023-04-07T05:03:15.304Z,1.17
2023-04-07T05:05:48.256Z,1.14
2023-04-07T05:08:16.006Z,1.13
2023-04-07T05:10:43.591Z,1.15
2023-04-07T05:13:13.633Z,1.17
2023-04-07T05:29:30.422Z,2.10
2023-04-07T05:31:58.730Z,2.14
2023-04-07T05:34:28.115Z,2.07
2023-04-07T05:36:56.320Z,2.08
2023-04-07T05:39:24.131Z,2.09
2023-04-07T05:41:53.760Z,2.18
2023-04-07T05:44:24.036Z,2.25
2023-04-07T05:46:51.926Z,2.26
2023-04-07T05:49:21.252Z,2.18
2023-04-07T05:51:53.519Z,2.14
2023-04-07T05:54:21.679Z,2.11
2023-04-07T06:10:23.559Z,2.80
2023-04-07T06:12:53.053Z,3.10
2023-04-07T06:15:22.038Z,3.08
2023-04-07T06:17:51.012Z,3.03
2023-04-07T06:20:23.304Z,3.13
2023-04-07T06:22:54.003Z,3.30
2023-04-07T06:25:23.009Z,3.20
2023-04-07T06:27:52.802Z,3.10
2023-04-07T06:30:21.917Z,3.08
2023-04-07T06:32:51.753Z,2.92
2023-04-07T06:35:21.201Z,2.90
2023-04-07T06:37:49.960Z,2.79
2023-04-07T06:40:18.949Z,2.67
2023-04-07T06:42:48.027Z,2.68
2023-04-07T06:45:23.965Z,2.63
2023-04-07T06:47:52.960Z,2.62
2023-04-07T06:50:22.493Z,2.62
2023-04-07T06:52:51.404Z,2.65
2023-04-07T06:55:20.465Z,2.69
2023-04-07T06:57:51.122Z,2.77
2023-04-07T07:00:23.312Z,2.89
2023-04-07T07:02:52.436Z,2.94
2023-04-07T07:05:22.040Z,2.95
2023-04-07T07:07:52.257Z,2.96
2023-04-07T07:10:22.907Z,3.01
2023-04-07T07:12:52.235Z,3.05
2023-04-07T07:15:21.233Z,3.09
2023-04-07T07:17:50.095Z,3.15
2023-04-07T07:20:19.027Z,3.19
2023-04-07T07:22:47.919Z,3.32
2023-04-07T07:25:16.980Z,3.57
2023-04-07T07:27:46.059Z,3.69
2023-04-07T07:30:14.998Z,3.88
2023-04-07T07:32:51.168Z,4.08
2023-04-07T07:35:21.643Z,4.06
2023-04-07T07:37:50.477Z,3.87
2023-04-07T07:40:19.589Z,3.76
2023-04-07T07:42:48.312Z,3.66
2023-04-07T07:45:19.835Z,3.60
2023-04-07T07:47:48.767Z,3.52
2023-04-07T07:50:17.687Z,3.59
2023-04-07T07:52:48.002Z,3.64
2023-04-07T07:55:16.924Z,3.66
2023-04-07T07:57:45.654Z,3.65
2023-04-07T08:00:14.845Z,3.71
2023-04-07T08:02:43.582Z,3.70
2023-04-07T08:05:13.120Z,3.76
2023-04-07T08:07:43.315Z,3.73
2023-04-07T08:10:12.337Z,3.89
2023-04-07T08:12:41.309Z,3.89
2023-04-07T08:15:10.546Z,3.67
2023-04-07T08:17:39.523Z,3.71
2023-04-07T08:20:10.841Z,3.73
2023-04-07T08:22:40.550Z,3.81
2023-04-07T08:25:09.448Z,3.93
2023-04-07T08:27:38.522Z,3.93
2023-04-07T08:30:08.160Z,3.99
2023-04-07T08:32:43.738Z,3.95
2023-04-07T08:35:12.880Z,4.13
2023-04-07T08:37:44.579Z,4.20
2023-04-07T08:40:14.033Z,4.19
2023-04-07T08:42:49.527Z,4.17
2023-04-07T08:45:19.794Z,4.23
2023-04-07T08:47:59.495Z,4.43
2023-04-07T08:50:29.715Z,4.82
2023-04-07T09:04:12.111Z,5.92
2023-04-07T09:06:39.601Z,5.88
2023-04-07T09:09:06.969Z,5.72
2023-04-07T09:11:40.591Z,5.63
2023-04-07T09:14:08.073Z,5.64
2023-04-07T09:16:35.745Z,5.59
2023-04-07T09:19:03.264Z,5.42
2023-04-07T09:21:51.930Z,5.35
2023-04-07T09:24:26.376Z,5.47
2023-04-07T09:27:19.922Z,5.45
2023-04-07T09:29:47.776Z,5.23
2023-04-07T09:32:43.329Z,5.25
2023-04-07T09:35:11.192Z,5.03
2023-04-07T09:37:38.911Z,5.03
2023-04-07T09:40:07.596Z,5.02
2023-04-07T09:42:37.444Z,5.15
2023-04-07T09:45:05.237Z,5.25
2023-04-07T09:50:35.408Z,5.28
2023-04-07T09:53:05.133Z,5.27
2023-04-07T09:55:35.161Z,5.39
2023-04-07T09:58:05.020Z,5.54
2023-04-07T10:00:33.908Z,5.57
2023-04-07T10:03:04.625Z,5.59
2023-04-07T10:05:35.569Z,5.54
2023-04-07T10:08:07.456Z,5.63
2023-04-07T10:10:37.167Z,5.81
2023-04-07T10:13:07.138Z,5.93
2023-04-07T10:15:37.585Z,6.08
2023-04-07T10:18:09.246Z,6.26
2023-04-07T10:20:42.461Z,6.26
2023-04-07T10:23:29.221Z,6.13
2023-04-07T10:26:00.815Z,6.09
2023-04-07T10:28:32.829Z,6.23
2023-04-07T10:31:02.679Z,6.16
2023-04-07T10:33:53.133Z,6.17
2023-04-07T10:36:22.468Z,6.26
2023-04-07T10:39:09.633Z,6.31
2023-04-07T10:41:42.380Z,6.40
2023-04-07T10:44:44.149Z,6.44
2023-04-07T10:47:14.421Z,6.46
2023-04-07T10:50:21.891Z,6.42
2023-04-07T10:53:15.699Z,6.57
2023-04-07T10:55:46.895Z,6.73
2023-04-07T10:58:24.530Z,6.78
2023-04-07T11:01:08.817Z,6.62
2023-04-07T11:03:41.441Z,6.58
2023-04-07T11:06:14.657Z,6.67
2023-04-07T11:08:49.437Z,6.70
2023-04-07T11:11:38.855Z,6.77
2023-04-07T11:14:07.645Z,6.73
2023-04-07T11:16:39.906Z,6.63
2023-04-07T11:19:08.678Z,6.47
2023-04-07T11:21:37.316Z,6.36
2023-04-07T11:24:06.678Z,6.29
2023-04-07T11:26:42.036Z,6.13
2023-04-07T11:29:12.364Z,6.03
2023-04-07T11:31:41.024Z,6.12
2023-04-07T11:34:09.783Z,6.29
2023-04-07T11:36:41.354Z,6.46
2023-04-07T11:39:31.747Z,6.58
2023-04-07T11:42:00.525Z,6.55
2023-04-07T11:44:29.245Z,6.51
2023-04-07T11:47:05.776Z,6.52
2023-04-07T11:49:34.701Z,6.52
2023-04-07T11:52:07.470Z,6.57
2023-04-07T11:54:50.861Z,6.61
2023-04-07T11:57:29.635Z,6.74
2023-04-07T12:00:15.861Z,6.73
2023-04-07T12:02:44.740Z,6.64
2023-04-07T12:05:13.730Z,6.57
2023-04-07T12:07:54.120Z,6.70
2023-04-07T12:10:27.946Z,6.77
2023-04-07T12:12:59.311Z,6.87
2023-04-07T12:15:28.268Z,6.92
2023-04-07T12:17:57.111Z,6.86
2023-04-07T12:20:26.031Z,6.88
2023-04-07T12:22:54.844Z,6.94
2023-04-07T12:25:23.872Z,7.13
2023-04-07T12:27:52.745Z,7.30
2023-04-07T12:30:21.717Z,7.43
2023-04-07T12:32:50.422Z,7.53
2023-04-07T12:35:19.238Z,7.63
2023-04-07T12:37:50.023Z,7.70
2023-04-07T12:40:19.352Z,7.73
2023-04-07T12:42:48.338Z,7.82
2023-04-07T12:45:17.021Z,7.91
2023-04-07T12:47:45.835Z,7.82
2023-04-07T12:50:14.800Z,7.75
2023-04-07T12:52:43.757Z,7.62
2023-04-07T12:55:14.487Z,7.53
2023-04-07T12:57:44.548Z,7.53
2023-04-07T13:00:14.927Z,7.61
2023-04-07T13:02:43.908Z,7.61
2023-04-07T13:05:13.024Z,7.73
2023-04-07T13:07:41.815Z,7.88
2023-04-07T13:10:11.499Z,7.91
2023-04-07T13:12:40.262Z,7.90
2023-04-07T13:15:09.523Z,7.93
2023-04-07T13:17:38.909Z,7.84
2023-04-07T13:20:08.599Z,7.76
2023-04-07T13:22:46.097Z,7.72
2023-04-07T13:25:17.871Z,7.76
2023-04-07T13:27:46.868Z,7.80
2023-04-07T13:30:16.378Z,8.02
2023-04-07T13:32:50.003Z,8.23
2023-04-07T13:35:19.511Z,8.41
2023-04-07T13:37:48.075Z,8.56
2023-04-07T13:40:16.724Z,8.73
2023-04-07T13:42:46.281Z,8.83
2023-04-07T13:45:16.197Z,8.97
2023-04-07T13:47:44.841Z,8.98
2023-04-07T13:50:13.505Z,8.95
2023-04-07T13:52:42.208Z,8.85
2023-04-07T13:55:11.109Z,8.77
2023-04-07T13:57:39.811Z,8.75
2023-04-07T14:00:09.301Z,8.72
2023-04-07T14:02:38.896Z,8.58
2023-04-07T14:05:07.867Z,8.46
2023-04-07T14:07:36.423Z,8.32
2023-04-07T14:10:05.584Z,8.20
2023-04-07T14:12:34.804Z,8.06
2023-04-07T14:15:04.124Z,8.06
2023-04-07T14:17:32.808Z,8.09
2023-04-07T14:20:01.382Z,8.23
2023-04-07T14:22:30.324Z,8.20
2023-04-07T14:24:59.074Z,8.24
2023-04-07T14:27:31.357Z,8.30
2023-04-07T14:30:00.389Z,8.31
2023-04-07T14:32:33.580Z,8.24
2023-04-07T14:35:02.564Z,8.20
2023-04-07T14:37:31.387Z,8.21
2023-04-07T14:40:03.080Z,8.26
2023-04-07T14:42:32.402Z,8.39
2023-04-07T14:45:02.040Z,8.55
2023-04-07T14:47:33.216Z,8.56
2023-04-07T14:50:02.068Z,8.57
2023-04-07T14:52:31.108Z,8.66
2023-04-07T15:08:47.750Z,9.05
2023-04-07T15:11:16.703Z,8.91
2023-04-07T15:13:46.828Z,8.75
2023-04-07T15:16:19.415Z,8.82
2023-04-07T15:18:48.942Z,8.76
2023-04-07T15:21:19.028Z,8.73
2023-04-07T15:23:47.940Z,8.39
2023-04-07T15:26:17.132Z,8.27
2023-04-07T15:28:47.771Z,8.16
2023-04-07T15:31:18.829Z,8.09
2023-04-07T15:33:50.227Z,7.89
2023-04-07T15:49:59.851Z,7.14
2023-04-07T15:52:29.134Z,6.61
2023-04-07T15:54:57.904Z,6.44
2023-04-07T15:57:26.545Z,6.29
2023-04-07T15:59:55.306Z,6.17
2023-04-07T16:02:24.080Z,6.12
2023-04-07T16:04:54.365Z,5.98
2023-04-07T16:07:23.117Z,5.85
2023-04-07T16:09:51.939Z,5.82
2023-04-07T16:12:20.922Z,5.71
2023-04-07T16:14:50.663Z,5.57
2023-04-07T16:17:19.405Z,5.55
2023-04-07T16:19:47.996Z,5.49
2023-04-07T16:22:16.594Z,5.42
2023-04-07T16:24:45.214Z,5.37
2023-04-07T16:27:13.998Z,5.26
2023-04-07T16:29:42.839Z,5.19
2023-04-07T16:32:11.798Z,5.19
2023-04-07T16:34:40.564Z,5.04
2023-04-07T16:37:09.662Z,5.03
2023-04-07T16:39:38.305Z,4.90
2023-04-07T16:42:07.030Z,4.89
2023-04-07T16:44:35.726Z,4.91
2023-04-07T16:47:04.420Z,4.92
2023-04-07T16:49:33.155Z,4.98
2023-04-07T16:52:01.884Z,4.88
2023-04-07T16:54:30.684Z,4.87
2023-04-07T16:56:59.443Z,4.77
2023-04-07T16:59:28.201Z,4.54
2023-04-07T17:01:57.813Z,4.44
2023-04-07T17:04:31.207Z,4.46
2023-04-07T17:07:03.417Z,4.41
2023-04-07T17:09:32.418Z,4.44
2023-04-07T17:12:02.276Z,4.44
2023-04-07T17:14:31.018Z,4.44
2023-04-07T17:17:01.624Z,4.40
2023-04-07T17:19:30.320Z,4.41
2023-04-07T17:21:58.974Z,4.31
2023-04-07T17:24:27.861Z,4.31
2023-04-07T17:26:56.521Z,4.24
2023-04-07T17:29:29.238Z,4.20
2023-04-07T17:32:00.843Z,4.17
2023-04-07T17:34:30.670Z,4.15
2023-04-07T17:37:03.371Z,4.05
2023-04-07T17:39:33.273Z,4.06
2023-04-07T17:42:02.112Z,4.01
2023-04-07T17:44:31.258Z,3.97
2023-04-07T17:47:00.587Z,3.83
2023-04-07T17:49:29.270Z,3.83
2023-04-07T17:51:57.950Z,3.77
2023-04-07T17:54:26.747Z,3.78
2023-04-07T17:56:55.760Z,3.76
2023-04-07T17:59:24.376Z,3.77
2023-04-07T18:01:53.136Z,3.78
2023-04-07T18:04:22.025Z,3.70
2023-04-07T18:06:51.477Z,3.60
2023-04-07T18:09:20.079Z,3.55
2023-04-07T18:11:48.938Z,3.51
2023-04-07T18:14:19.781Z,3.35
2023-04-07T18:16:48.406Z,3.25
2023-04-07T18:19:22.665Z,3.15
2023-04-07T18:21:53.156Z,3.09
2023-04-07T18:24:22.125Z,3.01
2023-04-07T18:26:50.831Z,3.02
2023-04-07T18:29:19.535Z,2.95
2023-04-07T18:31:48.310Z,2.95
2023-04-07T18:34:22.355Z,2.94
2023-04-07T18:36:51.000Z,2.91
2023-04-07T18:39:19.638Z,2.93
2023-04-07T18:41:49.212Z,2.99
2023-04-07T18:44:18.188Z,3.06
2023-04-07T18:46:46.895Z,3.06
2023-04-07T18:49:15.673Z,3.08
2023-04-07T18:51:46.193Z,3.07
2023-04-07T18:54:14.997Z,3.11
2023-04-07T18:56:43.598Z,3.13
2023-04-07T18:59:14.389Z,3.14
2023-04-07T19:01:43.382Z,3.17
2023-04-07T19:04:40.754Z,3.22
2023-04-07T19:07:09.382Z,3.18
2023-04-07T19:09:38.043Z,3.09
2023-04-07T19:12:07.526Z,3.10
2023-04-07T19:14:36.171Z,3.07
2023-04-07T19:17:05.052Z,2.98
2023-04-07T19:19:33.666Z,2.90
2023-04-07T19:22:03.840Z,2.82
2023-04-07T19:24:32.534Z,2.83
2023-04-07T19:27:01.638Z,2.79
2023-04-07T19:29:32.236Z,2.72
2023-04-07T19:32:01.253Z,2.68
2023-04-07T19:34:29.995Z,2.59
2023-04-07T19:36:59.673Z,2.67
2023-04-07T19:39:31.103Z,2.61
2023-04-07T19:42:01.271Z,2.57
2023-04-07T19:44:31.429Z,2.53
2023-04-07T19:47:00.175Z,2.65
2023-04-07T19:49:28.983Z,2.58
2023-04-07T19:51:57.639Z,2.50
2023-04-07T19:54:26.425Z,2.46
2023-04-07T19:56:58.422Z,2.47
2023-04-07T19:59:27.029Z,2.41
2023-04-07T20:01:55.905Z,2.34
2023-04-07T20:04:24.563Z,2.30
2023-04-07T20:06:53.206Z,2.28
2023-04-07T20:09:22.988Z,2.25
2023-04-07T20:11:52.284Z,2.33
2023-04-07T20:14:21.167Z,2.22
2023-04-07T20:16:50.107Z,2.29
2023-04-07T20:19:22.073Z,2.31
2023-04-07T20:21:57.210Z,2.29
2023-04-07T20:24:25.932Z,2.27
2023-04-07T20:26:54.443Z,2.22
2023-04-07T20:29:23.044Z,2.29
2023-04-07T20:31:51.635Z,2.29
2023-04-07T20:34:20.256Z,2.29
2023-04-07T20:36:51.855Z,2.29
2023-04-07T20:39:20.507Z,2.28
2023-04-07T20:41:49.014Z,2.32
2023-04-07T20:44:18.533Z,2.27
2023-04-07T20:46:47.487Z,2.32
2023-04-07T20:49:16.167Z,2.32
2023-04-07T21:04:07.335Z,2.68
2023-04-07T21:06:36.126Z,2.66
2023-04-07T21:09:06.011Z,2.58
2023-04-07T21:11:35.617Z,2.59
2023-04-07T21:14:04.702Z,2.42
2023-04-07T21:16:33.400Z,2.34
2023-04-07T21:19:03.688Z,2.18
2023-04-07T21:21:32.464Z,2.17
2023-04-07T21:24:00.993Z,1.95
2023-04-07T21:26:29.798Z,1.89
2023-04-07T21:28:58.476Z,1.92
2023-04-07T21:31:27.157Z,1.89
2023-04-07T21:33:55.953Z,1.87
2023-04-07T21:36:24.693Z,1.85
2023-04-07T21:38:53.991Z,1.91
2023-04-07T21:41:22.684Z,1.94
2023-04-07T21:43:51.558Z,1.92
2023-04-07T21:46:20.140Z,1.90
2023-04-07T21:48:49.513Z,1.96
2023-04-07T21:51:19.283Z,1.97
2023-04-07T21:53:47.845Z,1.97
2023-04-07T21:56:16.515Z,1.91
2023-04-07T21:58:46.785Z,1.92
2023-04-07T22:01:18.010Z,1.96
2023-04-07T22:03:47.647Z,1.94
2023-04-07T22:06:16.338Z,1.91
2023-04-07T22:08:54.849Z,1.97
2023-04-07T22:11:27.802Z,1.95
2023-04-07T22:13:56.456Z,1.92
2023-04-07T22:16:29.700Z,1.91
2023-04-07T22:18:58.698Z,1.91
2023-04-07T22:21:27.526Z,1.79
2023-04-07T22:23:56.222Z,1.80
2023-04-07T22:26:24.925Z,1.78
2023-04-07T22:28:53.587Z,1.80
2023-04-07T22:31:22.246Z,1.75
2023-04-07T22:33:50.838Z,1.78
2023-04-07T22:36:19.456Z,1.75
2023-04-07T22:38:48.334Z,1.67
2023-04-07T22:41:17.230Z,1.64
2023-04-07T22:43:45.929Z,1.71
2023-04-07T22:46:16.108Z,1.75
2023-04-07T22:48:44.719Z,1.70
2023-04-07T22:51:13.384Z,1.76
2023-04-07T22:53:41.856Z,1.76
2023-04-07T22:56:10.752Z,1.76
2023-04-07T22:58:39.519Z,1.80
2023-04-07T23:01:08.121Z,1.80
2023-04-07T23:03:36.927Z,1.84
2023-04-07T23:06:05.811Z,1.86
2023-04-07T23:08:34.711Z,1.90
2023-04-07T23:11:03.290Z,1.91
2023-04-07T23:13:31.964Z,1.86
2023-04-07T23:16:03.860Z,1.91
2023-04-07T23:18:32.672Z,1.82
2023-04-07T23:21:01.284Z,1.83
2023-04-07T23:23:29.982Z,1.79
2023-04-07T23:25:58.615Z,1.74
2023-04-07T23:28:28.228Z,1.71
2023-04-07T23:30:57.488Z,1.67
2023-04-07T23:33:26.163Z,1.63
2023-04-07T23:35:55.349Z,1.58
2023-04-07T23:38:24.525Z,1.46
2023-04-07T23:40:53.521Z,1.47
2023-04-07T23:43:22.221Z,1.47
2023-04-07T23:45:51.054Z,1.41
2023-04-07T23:48:19.693Z,1.42
2023-04-07T23:50:50.823Z,1.37
2023-04-07T23:53:19.802Z,1.33
2023-04-07T23:55:50.621Z,1.31
2023-04-07T23:58:19.336Z,1.28
